createdAt,value
2017-12-15T00:00:35.201Z,90.15
2017-12-15T00:01:15.783Z,89.86
2017-12-15T00:01:56.366Z,90.34
2017-12-15T00:02:36.936Z,89.77
2017-12-15T00:03:17.501Z,90.24
2017-12-15T00:03:58.060Z,89.96
2017-12-15T00:04:38.621Z,89.96
2017-12-15T00:05:19.184Z,90.05
2017-12-15T00:05:59.765Z,89.96
2017-12-15T00:06:40.369Z,89.77
2017-12-15T00:07:20.970Z,90.05
2017-12-15T00:08:01.536Z,89.67
2017-12-15T00:08:42.115Z,89.77
2017-12-15T00:09:22.696Z,90.15
2017-12-15T00:10:03.257Z,90.05
2017-12-15T00:10:43.820Z,89.86
2017-12-15T00:11:24.381Z,90.34
2017-12-15T00:12:05.009Z,89.96
2017-12-15T00:12:45.604Z,90.05
2017-12-15T00:13:26.176Z,89.67
2017-12-15T00:14:06.769Z,90.05
2017-12-15T00:14:47.340Z,89.48
2017-12-15T00:15:27.898Z,89.58
2017-12-15T00:16:08.488Z,89.39
2017-12-15T00:16:49.104Z,89.39
2017-12-15T00:17:29.703Z,89.39
2017-12-15T00:18:10.271Z,89.2
2017-12-15T00:18:50.863Z,89.01
2017-12-15T00:19:31.456Z,88.92
2017-12-15T00:20:12.024Z,89.11
2017-12-15T00:20:52.742Z,88.92
2017-12-15T00:21:33.803Z,88.92
2017-12-15T00:22:14.322Z,88.73
2017-12-15T00:22:55.063Z,89.01
2017-12-15T00:23:35.624Z,89.01
2017-12-15T00:24:16.207Z,89.11
2017-12-15T00:24:56.758Z,89.29
2017-12-15T00:25:37.348Z,89.2
2017-12-15T00:26:18.000Z,89.48
2017-12-15T00:26:58.614Z,89.58
2017-12-15T00:27:39.187Z,89.48
2017-12-15T00:28:19.913Z,89.58
2017-12-15T00:29:00.587Z,89.39
2017-12-15T00:29:41.193Z,89.11
2017-12-15T00:30:21.810Z,89.2
2017-12-15T00:31:02.381Z,89.29
2017-12-15T00:31:42.960Z,89.2
2017-12-15T00:32:23.523Z,89.01
2017-12-15T00:33:04.104Z,88.92
2017-12-15T00:33:44.700Z,89.2
2017-12-15T00:34:25.297Z,88.54
2017-12-15T00:35:05.857Z,88.63
2017-12-15T00:35:46.438Z,88.92
2017-12-15T00:36:27.018Z,89.39
2017-12-15T00:37:07.593Z,89.01
2017-12-15T00:37:48.166Z,89.11
2017-12-15T00:38:28.748Z,89.29
2017-12-15T00:39:09.331Z,89.39
2017-12-15T00:39:49.916Z,89.11
2017-12-15T00:40:30.526Z,89.39
2017-12-15T00:41:11.092Z,89.58
2017-12-15T00:41:51.678Z,89.2
2017-12-15T00:42:32.250Z,89.48
2017-12-15T00:43:12.837Z,89.39
2017-12-15T00:43:53.430Z,89.29
2017-12-15T00:44:33.984Z,89.39
2017-12-15T00:45:14.542Z,89.39
2017-12-15T00:45:55.120Z,88.73
2017-12-15T00:46:35.723Z,89.2
2017-12-15T00:47:16.282Z,89.2
2017-12-15T00:47:56.839Z,89.2
2017-12-15T00:48:37.432Z,89.11
2017-12-15T00:49:18.010Z,88.92
2017-12-15T00:49:58.571Z,89.39
2017-12-15T00:50:39.135Z,88.82
2017-12-15T00:51:19.700Z,88.54
2017-12-15T00:52:00.260Z,89.29
2017-12-15T00:52:40.831Z,89.01
2017-12-15T00:53:21.405Z,89.29
2017-12-15T00:54:01.965Z,89.11
2017-12-15T00:54:42.526Z,88.54
2017-12-15T00:55:23.099Z,88.35
2017-12-15T00:56:03.674Z,88.92
2017-12-15T00:56:44.255Z,88.92
2017-12-15T00:57:24.849Z,88.92
2017-12-15T00:58:05.457Z,88.73
2017-12-15T00:58:46.026Z,88.82
2017-12-15T00:59:26.608Z,88.06
2017-12-15T01:00:07.185Z,88.44
2017-12-15T01:00:47.762Z,88.44
2017-12-15T01:01:28.324Z,88.35
2017-12-15T01:02:08.904Z,88.25
2017-12-15T01:02:49.765Z,88.16
2017-12-15T01:03:30.720Z,88.06
2017-12-15T01:04:11.417Z,87.68
2017-12-15T01:04:51.986Z,88.06
2017-12-15T01:05:32.553Z,87.87
2017-12-15T01:06:13.141Z,87.77
2017-12-15T01:06:53.712Z,87.87
2017-12-15T01:07:34.309Z,87.87
2017-12-15T01:08:14.862Z,87.59
2017-12-15T01:08:55.449Z,87.59
2017-12-15T01:09:36.008Z,87.97
2017-12-15T01:10:16.589Z,87.97
2017-12-15T01:10:57.157Z,87.49
2017-12-15T01:11:37.741Z,87.59
2017-12-15T01:12:18.308Z,87.59
2017-12-15T01:12:58.867Z,87.77
2017-12-15T01:13:39.434Z,87.77
2017-12-15T01:14:20.463Z,87.97
2017-12-15T01:15:01.230Z,87.97
2017-12-15T01:15:42.223Z,87.59
2017-12-15T01:16:23.053Z,87.87
2017-12-15T01:17:03.795Z,87.87
2017-12-15T01:17:44.362Z,88.16
2017-12-15T01:18:25.008Z,87.59
2017-12-15T01:19:05.990Z,86.93
2017-12-15T01:19:46.596Z,87.68
2017-12-15T01:20:27.153Z,87.68
2017-12-15T01:21:07.726Z,87.68
2017-12-15T01:21:48.282Z,87.77
2017-12-15T01:22:28.917Z,87.77
2017-12-15T01:23:09.446Z,87.68
2017-12-15T01:23:50.039Z,87.77
2017-12-15T01:24:30.608Z,87.68
2017-12-15T01:25:11.179Z,87.77
2017-12-15T01:25:51.746Z,88.06
2017-12-15T01:26:32.303Z,88.06
2017-12-15T01:27:12.905Z,87.97
2017-12-15T01:27:53.461Z,87.77
2017-12-15T01:28:34.026Z,87.87
2017-12-15T01:29:14.616Z,87.59
2017-12-15T01:29:55.180Z,87.83
2017-12-15T01:30:35.771Z,88.02
2017-12-15T01:31:16.367Z,88.21
2017-12-15T01:31:56.947Z,88.02
2017-12-15T01:32:37.566Z,88.3
2017-12-15T01:33:18.136Z,87.83
2017-12-15T01:33:58.744Z,88.11
2017-12-15T01:34:39.334Z,88.11
2017-12-15T01:35:19.895Z,88.11
2017-12-15T01:36:00.464Z,88.4
2017-12-15T01:36:41.034Z,88.35
2017-12-15T01:37:21.597Z,88.21
2017-12-15T01:38:02.170Z,88.96
2017-12-15T01:38:42.729Z,88.59
2017-12-15T01:39:23.281Z,88.11
2017-12-15T01:40:03.839Z,88.3
2017-12-15T01:40:44.416Z,88.4
2017-12-15T01:41:24.972Z,88.21
2017-12-15T01:42:05.578Z,88.21
2017-12-15T01:42:46.144Z,88.49
2017-12-15T01:43:26.728Z,88.25
2017-12-15T01:44:07.295Z,88.21
2017-12-15T01:44:47.867Z,88.02
2017-12-15T01:45:28.437Z,88.21
2017-12-15T01:46:09.003Z,88.21
2017-12-15T01:46:49.558Z,88.02
2017-12-15T01:47:30.142Z,88.21
2017-12-15T01:48:10.695Z,88.02
2017-12-15T01:48:51.270Z,88.02
2017-12-15T01:49:31.842Z,88.06
2017-12-15T01:50:12.413Z,88.49
2017-12-15T01:50:52.978Z,88.44
2017-12-15T01:51:33.557Z,88.02
2017-12-15T01:52:14.115Z,87.92
2017-12-15T01:52:54.687Z,88.02
2017-12-15T01:53:35.267Z,87.73
2017-12-15T01:54:15.833Z,87.73
2017-12-15T01:54:56.401Z,87.64
2017-12-15T01:55:36.972Z,87.92
2017-12-15T01:56:17.530Z,87.73
2017-12-15T01:56:58.104Z,87.64
2017-12-15T01:57:38.672Z,87.64
2017-12-15T01:58:19.251Z,87.83
2017-12-15T01:58:59.823Z,87.92
2017-12-15T01:59:40.416Z,87.83
2017-12-15T02:00:20.979Z,88.4
2017-12-15T02:01:01.576Z,88.49
2017-12-15T02:01:42.141Z,87.83
2017-12-15T02:02:22.733Z,87.92
2017-12-15T02:03:03.314Z,87.92
2017-12-15T02:03:43.899Z,87.73
2017-12-15T02:04:24.460Z,87.73
2017-12-15T02:05:05.042Z,87.73
2017-12-15T02:05:45.623Z,87.73
2017-12-15T02:06:26.184Z,87.83
2017-12-15T02:07:06.740Z,87.54
2017-12-15T02:07:47.296Z,88.11
2017-12-15T02:08:27.879Z,87.92
2017-12-15T02:09:08.442Z,87.83
2017-12-15T02:09:49.010Z,88.3
2017-12-15T02:10:29.576Z,88.3
2017-12-15T02:11:10.164Z,88.21
2017-12-15T02:11:50.726Z,88.02
2017-12-15T02:12:31.274Z,87.83
2017-12-15T02:13:11.845Z,88.4
2017-12-15T02:13:52.428Z,88.4
2017-12-15T02:14:32.994Z,88.21
2017-12-15T02:15:13.554Z,88.11
2017-12-15T02:15:54.128Z,88.02
2017-12-15T02:16:34.705Z,88.02
2017-12-15T02:17:15.272Z,88.4
2017-12-15T02:17:55.844Z,88.4
2017-12-15T02:18:36.422Z,88.02
2017-12-15T02:19:16.985Z,88.02
2017-12-15T02:19:57.563Z,88.4
2017-12-15T02:20:38.134Z,88.02
2017-12-15T02:21:18.698Z,88.21
2017-12-15T02:21:59.278Z,88.4
2017-12-15T02:22:39.835Z,88.21
2017-12-15T02:23:20.440Z,88.21
2017-12-15T02:24:01.011Z,88.3
2017-12-15T02:24:41.599Z,88.02
2017-12-15T02:25:22.170Z,88.21
2017-12-15T02:26:02.746Z,88.11
2017-12-15T02:26:43.325Z,88.02
2017-12-15T02:27:23.879Z,88.21
2017-12-15T02:28:04.451Z,88.11
2017-12-15T02:28:45.017Z,87.92
2017-12-15T02:29:25.595Z,88.11
2017-12-15T02:30:06.182Z,87.92
2017-12-15T02:30:46.781Z,88.11
2017-12-15T02:31:27.371Z,87.83
2017-12-15T02:32:07.932Z,88.02
2017-12-15T02:32:48.503Z,88.4
2017-12-15T02:33:29.072Z,88.4
2017-12-15T02:34:09.633Z,88.02
2017-12-15T02:34:50.202Z,88.02
2017-12-15T02:35:30.766Z,88.21
2017-12-15T02:36:11.377Z,88.21
2017-12-15T02:36:51.955Z,87.92
2017-12-15T02:37:32.516Z,88.4
2017-12-15T02:38:13.102Z,88.21
2017-12-15T02:38:53.666Z,88.02
2017-12-15T02:39:34.243Z,88.02
2017-12-15T02:40:14.830Z,87.83
2017-12-15T02:40:55.387Z,88.02
2017-12-15T02:41:35.971Z,88.3
2017-12-15T02:42:16.559Z,87.83
2017-12-15T02:42:57.135Z,87.83
2017-12-15T02:43:37.709Z,88.21
2017-12-15T02:44:18.272Z,88.11
2017-12-15T02:44:58.841Z,88.11
2017-12-15T02:45:39.484Z,88.02
2017-12-15T02:46:20.048Z,88.02
2017-12-15T02:47:00.634Z,88.02
2017-12-15T02:47:41.198Z,88.21
2017-12-15T02:48:21.771Z,88.4
2017-12-15T02:49:02.334Z,88.02
2017-12-15T02:49:42.909Z,88.59
2017-12-15T02:50:23.475Z,88.3
2017-12-15T02:51:04.036Z,88.11
2017-12-15T02:51:44.612Z,88.59
2017-12-15T02:52:25.178Z,88.49
2017-12-15T02:53:05.806Z,88.21
2017-12-15T02:53:46.391Z,88.3
2017-12-15T02:54:26.987Z,88.21
2017-12-15T02:55:07.579Z,88.21
2017-12-15T02:55:48.170Z,88.11
2017-12-15T02:56:28.724Z,88.02
2017-12-15T02:57:09.302Z,88.21
2017-12-15T02:57:49.879Z,88.21
2017-12-15T02:58:30.445Z,88.3
2017-12-15T02:59:11.068Z,87.83
2017-12-15T02:59:51.675Z,88.21
2017-12-15T03:00:32.262Z,88.02
2017-12-15T03:01:12.866Z,88.4
2017-12-15T03:01:53.448Z,88.4
2017-12-15T03:02:34.021Z,88.02
2017-12-15T03:03:14.587Z,88.4
2017-12-15T03:03:55.145Z,88.21
2017-12-15T03:04:35.720Z,88.3
2017-12-15T03:05:16.282Z,88.4
2017-12-15T03:05:56.852Z,88.4
2017-12-15T03:06:37.427Z,88.49
2017-12-15T03:07:17.995Z,88.49
2017-12-15T03:07:58.579Z,88.4
2017-12-15T03:08:39.161Z,88.11
2017-12-15T03:09:19.722Z,88.21
2017-12-15T03:10:00.306Z,88.59
2017-12-15T03:10:40.899Z,88.21
2017-12-15T03:11:21.469Z,88.59
2017-12-15T03:12:02.038Z,88.4
2017-12-15T03:12:42.665Z,88.21
2017-12-15T03:13:23.260Z,88.21
2017-12-15T03:14:03.849Z,88.59
2017-12-15T03:14:44.451Z,88.59
2017-12-15T03:15:25.020Z,88.87
2017-12-15T03:16:05.574Z,88.87
2017-12-15T03:16:46.159Z,88.59
2017-12-15T03:17:26.782Z,88.59
2017-12-15T03:18:07.365Z,88.4
2017-12-15T03:18:47.985Z,89.06
2017-12-15T03:19:28.553Z,88.87
2017-12-15T03:20:09.112Z,89.15
2017-12-15T03:20:49.733Z,89.15
2017-12-15T03:21:30.340Z,89.25
2017-12-15T03:22:10.974Z,88.68
2017-12-15T03:22:51.550Z,88.59
2017-12-15T03:23:32.177Z,88.4
2017-12-15T03:24:12.739Z,88.78
2017-12-15T03:24:53.328Z,88.4
2017-12-15T03:25:33.894Z,89.34
2017-12-15T03:26:14.499Z,89.15
2017-12-15T03:26:55.098Z,88.96
2017-12-15T03:27:35.659Z,89.06
2017-12-15T03:28:16.232Z,89.15
2017-12-15T03:28:56.793Z,89.25
2017-12-15T03:29:37.371Z,88.96
2017-12-15T03:30:17.936Z,88.87
2017-12-15T03:30:58.508Z,89.06
2017-12-15T03:31:39.092Z,89.25
2017-12-15T03:32:19.655Z,89.15
2017-12-15T03:33:00.236Z,89.06
2017-12-15T03:33:40.831Z,89.15
2017-12-15T03:34:21.390Z,89.25
2017-12-15T03:35:01.980Z,88.78
2017-12-15T03:35:42.528Z,89.06
2017-12-15T03:36:23.107Z,89.06
2017-12-15T03:37:03.659Z,89.15
2017-12-15T03:37:44.259Z,89.25
2017-12-15T03:38:24.813Z,89.15
2017-12-15T03:39:05.401Z,89.25
2017-12-15T03:39:45.963Z,88.87
2017-12-15T03:40:26.547Z,88.87
2017-12-15T03:41:07.225Z,89.53
2017-12-15T03:41:47.796Z,89.53
2017-12-15T03:42:28.364Z,89.53
2017-12-15T03:43:08.942Z,89.53
2017-12-15T03:43:49.515Z,89.53
2017-12-15T03:44:30.077Z,89.25
2017-12-15T03:45:10.647Z,89.44
2017-12-15T03:45:51.260Z,89.34
2017-12-15T03:46:31.830Z,88.96
2017-12-15T03:47:12.442Z,89.44
2017-12-15T03:47:53.183Z,89.63
2017-12-15T03:48:33.783Z,89.34
2017-12-15T03:49:14.343Z,89.53
2017-12-15T03:49:54.917Z,89.53
2017-12-15T03:50:35.489Z,89.53
2017-12-15T03:51:16.067Z,88.96
2017-12-15T03:51:56.634Z,89.15
2017-12-15T03:52:37.176Z,89.25
2017-12-15T03:53:17.748Z,89.06
2017-12-15T03:53:58.313Z,89.25
2017-12-15T03:54:38.878Z,89.15
2017-12-15T03:55:19.444Z,89.06
2017-12-15T03:56:00.028Z,89.06
2017-12-15T03:56:40.584Z,89.34
2017-12-15T03:57:21.170Z,89.34
2017-12-15T03:58:01.763Z,89.34
2017-12-15T03:58:42.337Z,89.53
2017-12-15T03:59:22.892Z,89.53
2017-12-15T04:00:03.524Z,89.44
2017-12-15T04:00:44.087Z,89.53
2017-12-15T04:01:24.676Z,89.53
2017-12-15T04:02:05.263Z,89.34
2017-12-15T04:02:45.841Z,89.34
2017-12-15T04:03:26.527Z,88.96
2017-12-15T04:04:07.103Z,89.25
2017-12-15T04:04:47.683Z,89.06
2017-12-15T04:05:28.257Z,89.15
2017-12-15T04:06:08.835Z,89.06
2017-12-15T04:06:49.400Z,89.25
2017-12-15T04:07:30.015Z,89.15
2017-12-15T04:08:10.591Z,89.06
2017-12-15T04:08:51.203Z,89.15
2017-12-15T04:09:31.786Z,89.06
2017-12-15T04:10:12.356Z,88.96
2017-12-15T04:10:52.960Z,89.15
2017-12-15T04:11:33.516Z,88.96
2017-12-15T04:12:14.122Z,88.96
2017-12-15T04:12:54.703Z,88.87
2017-12-15T04:13:35.278Z,89.44
2017-12-15T04:14:15.847Z,89.34
2017-12-15T04:14:56.430Z,88.96
2017-12-15T04:15:36.984Z,89.34
2017-12-15T04:16:17.536Z,88.87
2017-12-15T04:16:58.108Z,89.06
2017-12-15T04:17:38.684Z,89.15
2017-12-15T04:18:19.256Z,89.25
2017-12-15T04:18:59.829Z,88.87
2017-12-15T04:19:40.433Z,89.06
2017-12-15T04:20:21.005Z,89.06
2017-12-15T04:21:01.591Z,89.06
2017-12-15T04:21:42.178Z,88.87
2017-12-15T04:22:22.741Z,89.06
2017-12-15T04:23:03.303Z,89.06
2017-12-15T04:23:43.901Z,89.25
2017-12-15T04:24:24.465Z,89.44
2017-12-15T04:25:05.059Z,89.06
2017-12-15T04:25:45.660Z,89.25
2017-12-15T04:26:26.233Z,89.25
2017-12-15T04:27:06.806Z,89.63
2017-12-15T04:27:47.418Z,89.53
2017-12-15T04:28:27.995Z,89.34
2017-12-15T04:29:08.555Z,89.63
2017-12-15T04:29:49.123Z,89.82
2017-12-15T04:30:29.914Z,89.44
2017-12-15T04:31:10.508Z,89.34
2017-12-15T04:31:51.110Z,89.34
2017-12-15T04:32:31.679Z,89.44
2017-12-15T04:33:12.310Z,89.44
2017-12-15T04:33:52.872Z,89.44
2017-12-15T04:34:33.474Z,89.34
2017-12-15T04:35:14.045Z,89.34
2017-12-15T04:35:54.617Z,89.53
2017-12-15T04:36:35.173Z,89.53
2017-12-15T04:37:15.741Z,89.53
2017-12-15T04:37:56.309Z,89.15
2017-12-15T04:38:36.890Z,89.25
2017-12-15T04:39:17.446Z,89.63
2017-12-15T04:39:58.037Z,89.53
2017-12-15T04:40:38.645Z,89.53
2017-12-15T04:41:19.209Z,89.34
2017-12-15T04:41:59.814Z,89.15
2017-12-15T04:42:40.416Z,89.06
2017-12-15T04:43:20.990Z,89.06
2017-12-15T04:44:01.547Z,88.87
2017-12-15T04:44:42.135Z,88.96
2017-12-15T04:45:22.714Z,89.06
2017-12-15T04:46:03.291Z,88.87
2017-12-15T04:46:43.876Z,89.15
2017-12-15T04:47:24.474Z,89.15
2017-12-15T04:48:05.048Z,89.25
2017-12-15T04:48:45.621Z,89.15
2017-12-15T04:49:26.181Z,89.06
2017-12-15T04:50:06.749Z,88.96
2017-12-15T04:50:47.352Z,89.06
2017-12-15T04:51:27.908Z,88.87
2017-12-15T04:52:08.478Z,88.87
2017-12-15T04:52:49.613Z,88.96
2017-12-15T04:54:37.147Z,88.87
2017-12-15T04:55:17.722Z,88.96
2017-12-15T04:55:58.295Z,89.25
2017-12-15T04:56:38.858Z,89.06
2017-12-15T04:57:19.453Z,89.15
2017-12-15T04:58:00.008Z,88.96
2017-12-15T04:58:40.573Z,89.15
2017-12-15T04:59:21.145Z,88.68
2017-12-15T05:00:01.719Z,88.4
2017-12-15T05:00:42.288Z,88.3
2017-12-15T05:01:22.872Z,88.59
2017-12-15T05:02:03.434Z,88.59
2017-12-15T05:02:44.000Z,88.49
2017-12-15T05:03:24.562Z,88.96
2017-12-15T05:04:05.131Z,88.96
2017-12-15T05:04:45.702Z,88.96
2017-12-15T05:05:26.289Z,89.06
2017-12-15T05:06:06.848Z,89.15
2017-12-15T05:06:47.408Z,89.15
2017-12-15T05:07:27.979Z,88.87
2017-12-15T05:08:08.554Z,89.15
2017-12-15T05:08:49.119Z,89.15
2017-12-15T05:09:29.695Z,88.96
2017-12-15T05:10:10.309Z,88.87
2017-12-15T05:10:50.849Z,89.15
2017-12-15T05:11:31.465Z,88.78
2017-12-15T05:12:12.032Z,89.06
2017-12-15T05:12:52.600Z,89.15
2017-12-15T05:13:33.176Z,89.25
2017-12-15T05:14:13.722Z,89.25
2017-12-15T05:14:54.278Z,89.06
2017-12-15T05:15:34.847Z,88.87
2017-12-15T05:16:15.433Z,89.06
2017-12-15T05:16:56.013Z,89.15
2017-12-15T05:17:37.201Z,89.06
2017-12-15T05:18:18.228Z,89.06
2017-12-15T05:18:58.886Z,89.15
2017-12-15T05:19:39.414Z,88.87
2017-12-15T05:20:19.991Z,89.06
2017-12-15T05:21:00.564Z,89.15
2017-12-15T05:21:41.147Z,88.3
2017-12-15T05:22:21.757Z,89.15
2017-12-15T05:23:02.291Z,89.06
2017-12-15T05:23:42.854Z,89.25
2017-12-15T05:24:23.455Z,89.06
2017-12-15T05:25:04.006Z,88.87
2017-12-15T05:25:44.581Z,89.15
2017-12-15T05:26:25.151Z,88.78
2017-12-15T05:27:05.700Z,88.96
2017-12-15T05:27:46.284Z,88.96
2017-12-15T05:28:26.922Z,89.06
2017-12-15T05:29:07.551Z,88.49
2017-12-15T05:29:48.111Z,88.87
2017-12-15T05:30:28.683Z,88.87
2017-12-15T05:31:09.252Z,88.68
2017-12-15T05:31:49.818Z,88.3
2017-12-15T05:32:30.401Z,89.25
2017-12-15T05:33:10.966Z,88.87
2017-12-15T05:33:51.530Z,89.15
2017-12-15T05:34:32.114Z,88.87
2017-12-15T05:35:12.676Z,89.06
2017-12-15T05:35:53.258Z,88.87
2017-12-15T05:36:33.849Z,89.06
2017-12-15T05:37:14.452Z,89.15
2017-12-15T05:37:55.022Z,88.87
2017-12-15T05:38:35.649Z,88.68
2017-12-15T05:39:16.209Z,89.25
2017-12-15T05:39:56.782Z,89.15
2017-12-15T05:40:37.343Z,88.78
2017-12-15T05:41:17.905Z,88.87
2017-12-15T05:41:58.490Z,88.87
2017-12-15T05:42:39.067Z,89.06
2017-12-15T05:43:19.646Z,89.06
2017-12-15T05:44:00.240Z,88.87
2017-12-15T05:44:40.796Z,89.15
2017-12-15T05:45:21.446Z,89.25
2017-12-15T05:46:01.995Z,89.06
2017-12-15T05:46:42.575Z,89.25
2017-12-15T05:47:23.139Z,89.25
2017-12-15T05:48:03.730Z,88.96
2017-12-15T05:48:44.340Z,89.06
2017-12-15T05:49:24.925Z,89.06
2017-12-15T05:50:05.501Z,89.06
2017-12-15T05:50:46.075Z,88.49
2017-12-15T05:51:26.704Z,89.25
2017-12-15T05:52:07.340Z,89.06
2017-12-15T05:52:48.213Z,89.06
2017-12-15T05:53:29.006Z,88.96
2017-12-15T05:54:09.612Z,89.06
2017-12-15T05:54:50.185Z,89.15
2017-12-15T05:55:30.754Z,88.59
2017-12-15T05:56:11.321Z,88.78
2017-12-15T05:56:51.919Z,88.59
2017-12-15T05:57:32.484Z,88.49
2017-12-15T05:58:13.040Z,88.87
2017-12-15T05:58:53.659Z,88.78
2017-12-15T05:59:34.219Z,88.78
2017-12-15T06:00:14.782Z,88.68
2017-12-15T06:00:55.359Z,88.68
2017-12-15T06:01:35.931Z,88.87
2017-12-15T06:02:16.551Z,88.87
2017-12-15T06:02:57.185Z,88.68
2017-12-15T06:03:37.772Z,88.78
2017-12-15T06:04:18.332Z,88.4
2017-12-15T06:04:58.910Z,88.59
2017-12-15T06:05:39.508Z,89.06
2017-12-15T06:06:20.067Z,88.49
2017-12-15T06:07:00.634Z,88.87
2017-12-15T06:07:41.209Z,88.68
2017-12-15T06:08:21.792Z,88.4
2017-12-15T06:09:02.350Z,88.4
2017-12-15T06:09:42.900Z,88.49
2017-12-15T06:10:23.482Z,88.68
2017-12-15T06:11:04.044Z,88.68
2017-12-15T06:11:44.588Z,88.78
2017-12-15T06:12:25.153Z,88.11
2017-12-15T06:13:05.722Z,89.06
2017-12-15T06:13:46.315Z,88.4
2017-12-15T06:14:26.888Z,88.11
2017-12-15T06:15:07.454Z,88.21
2017-12-15T06:15:48.021Z,88.02
2017-12-15T06:16:28.614Z,88.11
2017-12-15T06:17:09.229Z,88.4
2017-12-15T06:17:49.818Z,88.87
2017-12-15T06:18:30.388Z,88.68
2017-12-15T06:19:10.975Z,89.25
2017-12-15T06:19:51.561Z,89.06
2017-12-15T06:20:32.119Z,88.96
2017-12-15T06:21:12.681Z,89.06
2017-12-15T06:21:53.236Z,88.87
2017-12-15T06:22:33.802Z,89.06
2017-12-15T06:23:14.410Z,89.06
2017-12-15T06:23:54.979Z,89.25
2017-12-15T06:24:35.542Z,89.06
2017-12-15T06:25:16.109Z,88.96
2017-12-15T06:25:56.693Z,88.87
2017-12-15T06:26:37.259Z,89.15
2017-12-15T06:27:17.825Z,88.96
2017-12-15T06:27:58.398Z,89.63
2017-12-15T06:28:38.971Z,89.44
2017-12-15T06:29:19.539Z,91.24
2017-12-15T06:30:00.356Z,94.6
2017-12-15T06:30:41.220Z,95.36
2017-12-15T06:31:21.788Z,96.03
2017-12-15T06:32:02.366Z,96.59
2017-12-15T06:32:42.939Z,97.54
2017-12-15T06:33:23.518Z,98.73
2017-12-15T06:34:04.087Z,98.92
2017-12-15T06:34:44.656Z,98.54
2017-12-15T06:35:25.234Z,98.11
2017-12-15T06:36:05.798Z,95.55
2017-12-15T06:36:46.409Z,93.37
2017-12-15T06:37:27.373Z,92.71
2017-12-15T06:38:07.947Z,92.52
2017-12-15T06:38:48.511Z,90.33
2017-12-15T06:39:29.141Z,87.68
2017-12-15T06:40:09.751Z,86.25
2017-12-15T06:40:50.895Z,85.3
2017-12-15T06:41:32.794Z,84.26
2017-12-15T06:42:13.377Z,83.5
2017-12-15T06:42:53.954Z,83.4
2017-12-15T06:43:34.507Z,82.36
2017-12-15T06:44:15.077Z,82.36
2017-12-15T06:44:55.658Z,83.08
2017-12-15T06:45:36.222Z,83.17
2017-12-15T06:46:16.803Z,83.17
2017-12-15T06:46:57.379Z,83.36
2017-12-15T06:47:37.940Z,83.17
2017-12-15T06:48:18.483Z,82.98
2017-12-15T06:48:59.048Z,83.17
2017-12-15T06:49:39.649Z,83.65
2017-12-15T06:50:20.219Z,84.12
2017-12-15T06:51:00.773Z,84.12
2017-12-15T06:51:41.377Z,84.31
2017-12-15T06:52:21.916Z,83.89
2017-12-15T06:53:02.480Z,84.46
2017-12-15T06:53:43.042Z,84.46
2017-12-15T06:54:23.618Z,84.65
2017-12-15T06:55:04.219Z,84.94
2017-12-15T06:55:44.794Z,85.13
2017-12-15T06:56:25.375Z,85.41
2017-12-15T06:57:05.939Z,85.78
2017-12-15T06:57:46.501Z,85.97
2017-12-15T06:58:27.063Z,86.26
2017-12-15T06:59:07.633Z,86.45
2017-12-15T06:59:48.228Z,86.26
2017-12-15T07:00:28.778Z,86.16
2017-12-15T07:01:09.355Z,86.64
2017-12-15T07:01:49.934Z,86.93
2017-12-15T07:02:30.504Z,87.3
2017-12-15T07:03:11.074Z,87.21
2017-12-15T07:03:51.631Z,86.83
2017-12-15T07:04:32.277Z,87.21
2017-12-15T07:05:12.861Z,87.12
2017-12-15T07:05:53.418Z,87.12
2017-12-15T07:06:34.044Z,87.02
2017-12-15T07:07:14.584Z,87.21
2017-12-15T07:07:55.140Z,86.93
2017-12-15T07:08:35.712Z,86.93
2017-12-15T07:09:16.289Z,86.93
2017-12-15T07:09:56.848Z,87.21
2017-12-15T07:10:37.550Z,86.64
2017-12-15T07:11:18.104Z,86.74
2017-12-15T07:11:58.692Z,86.93
2017-12-15T07:12:39.272Z,86.55
2017-12-15T07:13:19.849Z,87.02
2017-12-15T07:14:00.421Z,87.02
2017-12-15T07:14:40.988Z,86.74
2017-12-15T07:15:21.579Z,86.55
2017-12-15T07:16:02.136Z,87.21
2017-12-15T07:16:42.692Z,87.12
2017-12-15T07:17:23.348Z,87.35
2017-12-15T07:18:03.914Z,87.35
2017-12-15T07:18:44.473Z,87.92
2017-12-15T07:19:25.032Z,87.83
2017-12-15T07:20:05.607Z,88.02
2017-12-15T07:20:46.194Z,87.92
2017-12-15T07:21:26.782Z,88.02
2017-12-15T07:22:07.336Z,88.4
2017-12-15T07:22:47.910Z,88.49
2017-12-15T07:23:28.527Z,88.49
2017-12-15T07:24:09.104Z,88.49
2017-12-15T07:24:49.668Z,88.4
2017-12-15T07:25:30.225Z,88.4
2017-12-15T07:26:10.829Z,88.02
2017-12-15T07:26:51.494Z,88.11
2017-12-15T07:27:32.014Z,88.87
2017-12-15T07:28:12.570Z,88.78
2017-12-15T07:28:53.174Z,88.68
2017-12-15T07:29:33.789Z,88.49
2017-12-15T07:30:14.643Z,88.49
2017-12-15T07:30:55.389Z,89.25
2017-12-15T07:31:35.932Z,88.78
2017-12-15T07:32:16.481Z,89.06
2017-12-15T07:32:57.061Z,89.06
2017-12-15T07:33:37.679Z,88.78
2017-12-15T07:34:18.193Z,89.15
2017-12-15T07:34:58.800Z,88.96
2017-12-15T07:35:39.358Z,89.06
2017-12-15T07:36:19.977Z,88.96
2017-12-15T07:37:00.551Z,89.15
2017-12-15T07:37:41.137Z,88.49
2017-12-15T07:38:21.695Z,88.49
2017-12-15T07:39:02.264Z,88.78
2017-12-15T07:39:42.832Z,89.25
2017-12-15T07:40:23.393Z,89.25
2017-12-15T07:41:03.991Z,88.59
2017-12-15T07:41:44.616Z,88.78
2017-12-15T07:42:25.181Z,88.78
2017-12-15T07:43:05.768Z,88.87
2017-12-15T07:43:46.347Z,88.68
2017-12-15T07:44:26.921Z,89.25
2017-12-15T07:45:07.507Z,89.25
2017-12-15T07:45:48.086Z,88.87
2017-12-15T07:46:28.667Z,89.06
2017-12-15T07:47:09.240Z,88.87
2017-12-15T07:47:49.808Z,88.96
2017-12-15T07:48:30.382Z,89.15
2017-12-15T07:49:10.976Z,88.59
2017-12-15T07:49:51.550Z,89.15
2017-12-15T07:50:32.131Z,89.15
2017-12-15T07:51:12.703Z,88.78
2017-12-15T07:51:53.261Z,88.96
2017-12-15T07:52:33.903Z,88.87
2017-12-15T07:53:14.465Z,88.87
2017-12-15T07:53:55.079Z,88.49
2017-12-15T07:54:35.631Z,88.68
2017-12-15T07:55:16.218Z,88.78
2017-12-15T07:55:56.769Z,88.78
2017-12-15T07:56:37.340Z,88.68
2017-12-15T07:57:17.917Z,88.4
2017-12-15T07:57:58.494Z,88.49
2017-12-15T07:58:39.103Z,88.3
2017-12-15T07:59:19.675Z,88.96
2017-12-15T08:00:00.239Z,88.87
2017-12-15T08:00:40.785Z,88.78
2017-12-15T08:01:21.351Z,89.06
2017-12-15T08:02:01.931Z,89.15
2017-12-15T08:02:42.479Z,88.87
2017-12-15T08:03:23.052Z,89.34
2017-12-15T08:04:03.619Z,89.25
2017-12-15T08:04:44.198Z,89.34
2017-12-15T08:05:24.777Z,89.34
2017-12-15T08:06:05.343Z,89.44
2017-12-15T08:06:45.924Z,89.06
2017-12-15T08:07:26.483Z,88.96
2017-12-15T08:08:07.049Z,89.25
2017-12-15T08:08:47.633Z,89.06
2017-12-15T08:09:28.210Z,89.15
2017-12-15T08:10:08.777Z,89.15
2017-12-15T08:10:49.335Z,88.96
2017-12-15T08:11:29.905Z,88.87
2017-12-15T08:12:10.472Z,89.06
2017-12-15T08:12:51.065Z,89.01
2017-12-15T08:13:31.637Z,89.39
2017-12-15T08:14:12.216Z,88.4
2017-12-15T08:14:52.801Z,88.54
2017-12-15T08:15:33.365Z,88.63
2017-12-15T08:16:13.944Z,88.06
2017-12-15T08:16:54.531Z,88.73
2017-12-15T08:17:35.095Z,88.92
2017-12-15T08:18:15.695Z,88.82
2017-12-15T08:18:56.268Z,88.92
2017-12-15T08:19:36.818Z,88.16
2017-12-15T08:20:17.419Z,88.44
2017-12-15T08:20:57.957Z,88.35
2017-12-15T08:21:38.538Z,88.16
2017-12-15T08:22:19.131Z,88.06
2017-12-15T08:22:59.743Z,88.25
2017-12-15T08:23:40.330Z,88.25
2017-12-15T08:24:20.897Z,88.35
2017-12-15T08:25:01.535Z,88.35
2017-12-15T08:25:42.101Z,88.06
2017-12-15T08:26:22.731Z,88.16
2017-12-15T08:27:03.279Z,88.16
2017-12-15T08:27:43.857Z,88.35
2017-12-15T08:28:24.413Z,88.44
2017-12-15T08:29:04.981Z,88.06
2017-12-15T08:29:45.541Z,88.16
2017-12-15T08:30:26.125Z,88.16
2017-12-15T08:31:06.684Z,87.77
2017-12-15T08:31:47.334Z,87.77
2017-12-15T08:32:27.916Z,87.59
2017-12-15T08:33:08.498Z,87.59
2017-12-15T08:33:49.070Z,87.77
2017-12-15T08:34:29.647Z,87.49
2017-12-15T08:35:10.224Z,87.59
2017-12-15T08:35:50.831Z,87.87
2017-12-15T08:36:31.394Z,87.77
2017-12-15T08:37:11.973Z,88.06
2017-12-15T08:37:52.588Z,88.06
2017-12-15T08:38:33.176Z,87.77
2017-12-15T08:39:13.759Z,88.06
2017-12-15T08:39:54.312Z,88.06
2017-12-15T08:40:34.879Z,88.16
2017-12-15T08:41:15.501Z,88.16
2017-12-15T08:41:56.079Z,87.97
2017-12-15T08:42:36.634Z,88.06
2017-12-15T08:43:17.348Z,87.97
2017-12-15T08:43:57.930Z,88.06
2017-12-15T08:44:38.512Z,87.77
2017-12-15T08:45:19.084Z,87.49